createdAt,value
2023-02-02T00:00:12.819Z,1.19
2023-02-02T00:08:51.697Z,1.09
2023-02-02T00:17:30.487Z,1.01
2023-02-02T00:20:06.264Z,0.97
2023-02-02T00:22:39.746Z,1.09
2023-02-02T00:25:19.205Z,0.99
2023-02-02T00:28:07.188Z,0.91
2023-02-02T00:30:43.080Z,0.80
2023-02-02T00:33:12.040Z,0.75
2023-02-02T00:35:46.151Z,0.80
2023-02-02T00:38:19.520Z,0.84
2023-02-02T00:40:50.999Z,0.83
2023-02-02T00:43:20.077Z,0.78
2023-02-02T00:45:52.538Z,0.88
2023-02-02T00:48:30.613Z,0.76
2023-02-02T00:51:02.856Z,0.78
2023-02-02T00:53:36.983Z,0.81
2023-02-02T00:56:10.934Z,0.83
2023-02-02T00:58:46.164Z,0.92
2023-02-02T01:01:24.927Z,1.02
2023-02-02T01:03:55.309Z,1.02
2023-02-02T01:06:27.954Z,1.08
2023-02-02T01:09:00.266Z,0.98
2023-02-02T01:11:31.440Z,0.99
2023-02-02T01:14:11.451Z,0.96
2023-02-02T01:16:46.882Z,0.88
2023-02-02T01:19:19.193Z,1.00
2023-02-02T01:21:53.238Z,1.09
2023-02-02T01:24:24.998Z,0.87
2023-02-02T01:26:58.735Z,0.83
2023-02-02T01:29:30.210Z,0.98
2023-02-02T01:32:02.602Z,0.72
2023-02-02T01:34:53.206Z,0.78
2023-02-02T01:37:27.778Z,0.88
2023-02-02T01:40:05.082Z,0.90
2023-02-02T01:45:33.769Z,0.78
2023-02-02T01:48:06.952Z,0.72
2023-02-02T01:50:59.121Z,0.97
2023-02-02T01:53:31.886Z,0.98
2023-02-02T01:56:12.969Z,0.97
2023-02-02T02:01:30.621Z,0.99
2023-02-02T02:04:06.766Z,0.85
2023-02-02T02:06:40.964Z,0.90
2023-02-02T02:09:11.789Z,0.88
2023-02-02T02:11:46.916Z,0.96
2023-02-02T02:14:37.005Z,0.93
2023-02-02T02:21:35.175Z,1.17
2023-02-02T02:25:07.456Z,1.04
2023-02-02T02:28:02.287Z,0.93
2023-02-02T02:34:13.877Z,1.23
2023-02-02T02:36:58.475Z,1.19
2023-02-02T02:39:31.711Z,1.16
2023-02-02T02:42:08.337Z,1.22
2023-02-02T02:44:42.933Z,1.12
2023-02-02T02:47:16.500Z,0.95
2023-02-02T02:49:50.340Z,0.96
2023-02-02T02:55:16.137Z,0.89
2023-02-02T02:58:07.723Z,1.03
2023-02-02T03:01:27.972Z,1.11
2023-02-02T03:04:35.222Z,1.10
2023-02-02T03:07:14.163Z,1.00
2023-02-02T03:09:48.131Z,1.01
2023-02-02T03:12:29.933Z,0.94
2023-02-02T03:15:10.900Z,1.00
2023-02-02T03:20:51.568Z,1.19
2023-02-02T03:23:26.730Z,0.95
2023-02-02T03:26:02.417Z,1.09
2023-02-02T03:28:39.421Z,1.20
2023-02-02T03:31:19.329Z,1.15
2023-02-02T03:34:02.602Z,1.17
2023-02-02T03:36:35.591Z,1.07
2023-02-02T03:39:06.603Z,1.19
2023-02-02T03:41:50.885Z,1.22
2023-02-02T03:44:32.571Z,1.20
2023-02-02T03:47:09.920Z,1.11
2023-02-02T03:49:40.230Z,1.02
2023-02-02T03:52:15.467Z,1.21
2023-02-02T03:54:47.604Z,1.28
2023-02-02T03:57:20.069Z,1.29
2023-02-02T03:59:51.792Z,1.07
2023-02-02T04:05:09.122Z,1.28
2023-02-02T04:07:43.708Z,1.32
2023-02-02T04:10:14.666Z,1.37
2023-02-02T04:12:48.273Z,1.33
2023-02-02T04:15:19.370Z,1.31
2023-02-02T04:17:49.523Z,1.28
2023-02-02T04:20:18.121Z,1.29
2023-02-02T04:22:52.423Z,1.47
2023-02-02T04:25:22.360Z,1.28
2023-02-02T04:27:51.360Z,1.25
2023-02-02T04:30:25.695Z,1.28
2023-02-02T04:32:56.620Z,1.30
2023-02-02T04:35:27.150Z,1.33
2023-02-02T04:37:58.277Z,1.20
2023-02-02T04:40:28.044Z,1.30
2023-02-02T04:43:02.712Z,1.47
2023-02-02T04:45:36.913Z,1.41
2023-02-02T04:48:07.121Z,1.37
2023-02-02T04:50:38.232Z,1.32
2023-02-02T04:53:08.577Z,1.36
2023-02-02T04:55:43.657Z,1.44
2023-02-02T04:58:16.800Z,1.37
2023-02-02T05:00:49.654Z,1.42
2023-02-02T05:03:20.221Z,1.39
2023-02-02T05:05:51.749Z,1.42
2023-02-02T05:08:22.297Z,1.39
2023-02-02T05:10:51.151Z,1.45
2023-02-02T05:13:21.999Z,1.54
2023-02-02T05:15:51.951Z,1.40
2023-02-02T05:21:03.373Z,1.24
2023-02-02T05:23:34.091Z,1.39
2023-02-02T05:26:05.659Z,1.48
2023-02-02T05:28:43.675Z,1.43
2023-02-02T05:31:23.778Z,1.47
2023-02-02T05:33:57.295Z,1.48
2023-02-02T05:36:28.943Z,1.32
2023-02-02T05:41:58.774Z,1.58
2023-02-02T05:44:31.504Z,1.58
2023-02-02T05:49:46.735Z,1.67
2023-02-02T05:52:20.925Z,1.54
2023-02-02T06:00:29.859Z,1.81
2023-02-02T06:07:42.687Z,1.80
2023-02-02T06:34:26.661Z,2.08
2023-02-02T06:37:19.304Z,2.32
2023-02-02T06:43:07.931Z,2.34
2023-02-02T10:51:36.284Z,3.10
2023-02-02T10:54:17.552Z,2.86
2023-02-02T10:56:55.098Z,2.71
2023-02-02T10:59:44.795Z,2.51
2023-02-02T11:02:21.027Z,2.61
2023-02-02T11:05:09.104Z,2.66
2023-02-02T11:07:39.334Z,2.61
2023-02-02T11:10:08.215Z,2.53
2023-02-02T11:12:46.300Z,2.85
2023-02-02T11:15:34.236Z,2.88
2023-02-02T11:18:36.397Z,3.00
2023-02-02T11:21:24.255Z,2.92
2023-02-02T11:23:59.844Z,3.04
2023-02-02T11:26:56.105Z,3.07
2023-02-02T11:29:33.071Z,3.18
2023-02-02T11:35:25.279Z,3.39
2023-02-02T11:41:15.873Z,3.42
2023-02-02T11:43:55.888Z,3.27
2023-02-02T11:46:31.502Z,3.21
2023-02-02T11:49:08.641Z,3.22
2023-02-02T11:51:37.377Z,3.32
2023-02-02T11:54:34.968Z,3.76
2023-02-02T11:57:30.690Z,4.18
2023-02-02T12:00:11.446Z,4.46
2023-02-02T12:02:51.088Z,4.59
2023-02-02T12:05:27.133Z,4.90
2023-02-02T12:07:57.045Z,4.74
2023-02-02T12:17:07.999Z,5.39
2023-02-02T12:20:31.905Z,5.60
2023-02-02T12:23:58.265Z,5.56
2023-02-02T12:26:48.538Z,5.69
2023-02-02T12:29:34.337Z,5.82
2023-02-02T12:32:39.767Z,5.57
2023-02-02T12:53:30.219Z,5.74
2023-02-02T12:56:35.417Z,5.25
2023-02-02T12:59:53.893Z,5.41
2023-02-02T13:02:38.253Z,5.04
2023-02-02T13:08:27.843Z,4.99
2023-02-02T13:11:04.606Z,5.42
2023-02-02T13:13:40.789Z,5.42
2023-02-02T13:16:19.418Z,5.50
2023-02-02T13:19:08.519Z,5.36
2023-02-02T13:21:39.747Z,6.05
2023-02-02T13:24:28.867Z,6.28
2023-02-02T13:27:00.586Z,6.56
2023-02-02T13:29:55.896Z,6.33
2023-02-02T13:32:39.860Z,6.74
2023-02-02T13:51:42.203Z,4.92
2023-02-02T14:04:40.043Z,4.77
2023-02-02T14:14:36.403Z,4.45
2023-02-02T14:17:23.016Z,4.51
2023-02-02T14:19:55.316Z,4.42
2023-02-02T14:22:43.445Z,4.29
2023-02-02T14:25:33.745Z,4.22
2023-02-02T14:28:11.579Z,4.01
2023-02-02T14:30:41.039Z,3.97
2023-02-02T14:33:27.311Z,3.88
2023-02-02T14:36:01.766Z,3.56
2023-02-02T14:39:04.637Z,3.62
2023-02-02T14:42:24.405Z,3.47
2023-02-02T14:51:25.629Z,2.94
2023-02-02T14:54:03.260Z,2.98
2023-02-02T15:03:45.714Z,2.58
2023-02-02T15:15:36.301Z,2.64
2023-02-02T15:18:34.092Z,2.60
2023-02-02T15:21:08.501Z,2.50
2023-02-02T15:23:46.374Z,2.42
2023-02-02T15:26:28.374Z,2.44
2023-02-02T15:29:08.414Z,2.33
2023-02-02T15:31:44.417Z,2.33
2023-02-02T15:34:25.265Z,2.23
2023-02-02T15:37:07.276Z,2.33
2023-02-02T15:39:56.684Z,2.24
2023-02-02T15:42:53.527Z,2.30
2023-02-02T15:45:48.421Z,2.26
2023-02-02T16:36:41.959Z,2.37
2023-02-02T16:51:38.574Z,2.35
2023-02-02T17:31:04.220Z,2.53
2023-02-02T17:33:40.916Z,2.61
2023-02-02T17:36:13.738Z,2.71
2023-02-02T17:38:42.290Z,2.69
2023-02-02T17:41:13.107Z,2.89
2023-02-02T17:43:43.168Z,2.98
2023-02-02T17:46:14.034Z,3.03
2023-02-02T17:48:44.525Z,3.06
2023-02-02T17:51:17.119Z,3.12
2023-02-02T17:53:46.343Z,3.03
2023-02-02T17:56:15.267Z,3.16
2023-02-02T17:58:44.068Z,3.05
2023-02-02T18:01:14.425Z,3.13
2023-02-02T18:03:49.323Z,3.12
2023-02-02T18:06:17.231Z,3.08
2023-02-02T18:08:46.063Z,3.20
2023-02-02T18:11:18.983Z,3.14
2023-02-02T18:13:47.934Z,3.13
2023-02-02T18:16:16.258Z,3.07
2023-02-02T18:18:47.035Z,3.18
2023-02-02T18:21:15.005Z,3.24
2023-02-02T18:23:57.488Z,3.20
2023-02-02T18:26:32.862Z,3.03
2023-02-02T18:29:01.362Z,3.21
2023-02-02T18:31:29.841Z,3.11
2023-02-02T18:34:03.842Z,3.21
2023-02-02T18:36:32.347Z,3.12
2023-02-02T18:39:00.125Z,3.03
2023-02-02T18:41:28.770Z,3.08
2023-02-02T18:43:57.374Z,2.98
2023-02-02T18:46:27.044Z,2.91
2023-02-02T18:52:02.594Z,2.97
2023-02-02T18:54:48.342Z,3.05
2023-02-02T18:57:19.975Z,3.00
2023-02-02T19:02:48.194Z,2.97
2023-02-02T19:17:16.831Z,2.78
2023-02-02T19:19:47.810Z,2.81
2023-02-02T19:22:25.689Z,2.95
2023-02-02T19:24:56.266Z,2.79
2023-02-02T19:27:27.451Z,2.88
2023-02-02T19:30:06.175Z,2.96
2023-02-02T19:32:35.663Z,2.99
2023-02-02T19:35:07.968Z,3.00
2023-02-02T19:37:43.517Z,2.93
2023-02-02T19:40:20.290Z,3.01
2023-02-02T19:43:15.993Z,3.01
2023-02-02T19:45:45.343Z,2.88
2023-02-02T19:48:23.690Z,2.96
2023-02-02T19:50:59.202Z,2.92
2023-02-02T19:53:38.594Z,2.96
2023-02-02T19:56:35.746Z,2.99
2023-02-02T19:59:10.628Z,2.85
2023-02-02T20:01:40.324Z,2.76
2023-02-02T20:04:16.135Z,3.03
2023-02-02T20:16:03.624Z,2.84
2023-02-02T20:34:26.763Z,2.79
2023-02-02T20:37:23.315Z,2.71
2023-02-02T20:40:13.415Z,2.63
2023-02-02T20:42:42.234Z,2.53
2023-02-02T20:45:10.034Z,2.41
2023-02-02T20:47:38.503Z,2.44
2023-02-02T20:50:07.512Z,2.38
2023-02-02T20:52:36.482Z,2.48
2023-02-02T20:55:05.661Z,2.49
2023-02-02T20:57:33.727Z,2.53
2023-02-02T21:00:01.855Z,2.42
2023-02-02T21:02:30.756Z,2.52
2023-02-02T21:04:59.067Z,2.54
2023-02-02T21:07:27.852Z,2.44
2023-02-02T21:09:56.492Z,2.34
2023-02-02T21:12:26.575Z,2.30
2023-02-02T21:15:01.889Z,2.44
2023-02-02T21:17:32.087Z,2.54
2023-02-02T21:20:00.895Z,2.50
2023-02-02T21:31:48.770Z,2.63
2023-02-02T21:34:31.734Z,2.59
2023-02-02T21:37:00.960Z,2.47
2023-02-02T21:42:38.051Z,2.43
2023-02-02T21:45:28.967Z,2.25
2023-02-02T21:48:01.440Z,2.39
2023-02-02T21:50:36.093Z,2.35
2023-02-02T21:53:17.583Z,2.29
2023-02-02T21:59:00.712Z,2.16
2023-02-02T22:04:40.712Z,2.22
2023-02-02T22:07:14.992Z,2.11
2023-02-02T22:12:34.321Z,2.07
2023-02-02T22:18:19.038Z,2.05
2023-02-02T22:26:42.735Z,2.04
2023-02-02T22:29:21.607Z,1.85
2023-02-02T22:31:54.067Z,1.94
2023-02-02T22:34:23.374Z,1.84
2023-02-02T22:39:50.520Z,1.79
2023-02-02T22:42:19.137Z,1.82
2023-02-02T22:44:46.925Z,1.70
2023-02-02T22:47:15.640Z,1.64
2023-02-02T22:49:50.653Z,1.70
2023-02-02T22:55:22.324Z,1.44
2023-02-02T22:57:51.109Z,1.44
2023-02-02T23:00:26.823Z,1.56
2023-02-02T23:02:57.148Z,1.61
2023-02-02T23:05:28.189Z,1.54
2023-02-02T23:07:56.704Z,1.59
2023-02-02T23:10:27.865Z,1.44
2023-02-02T23:12:58.937Z,1.53
2023-02-02T23:15:27.404Z,1.24
2023-02-02T23:17:55.369Z,1.32
2023-02-02T23:20:24.561Z,1.22
2023-02-02T23:22:52.721Z,1.20
2023-02-02T23:25:20.649Z,1.13
2023-02-02T23:27:49.487Z,1.08
2023-02-02T23:30:20.727Z,1.05
2023-02-02T23:32:49.316Z,1.06
2023-02-02T23:35:17.563Z,1.05
2023-02-02T23:37:45.967Z,1.10
2023-02-02T23:40:13.838Z,0.99
2023-02-02T23:42:41.575Z,0.97
2023-02-02T23:45:11.543Z,0.99
2023-02-02T23:47:39.708Z,0.91
2023-02-02T23:50:09.946Z,0.85
2023-02-02T23:52:39.838Z,0.85
2023-02-02T23:55:08.162Z,0.91
2023-02-02T23:57:37.117Z,0.91
